Time;durP1;ratioP1;P1;durP2;ratioP2;P2;SDS_P1;SDS_P2;PMS_P1;PMS_P2;Temp;Humidity;BMP_temperature;BMP_pressure;BME280_temperature;BME280_humidity;BME280_pressure;Samples;Min_cycle;Max_cycle;Signal;HPM_P1;HPM_P2
2022/03/08 00:00:45;;;;;;;16.00;7.87;;;;;;;-2.80;100.00;99108.30;1771362;81;21023;-74
2022/03/08 00:03:12;;;;;;;14.07;7.17;;;;;;;-2.80;100.00;99110.11;1771695;81;21039;-74
2022/03/08 00:05:40;;;;;;;14.50;7.20;;;;;;;-2.80;100.00;99109.63;1771504;81;21488;-74
2022/03/08 00:08:07;;;;;;;15.30;7.93;;;;;;;-2.80;100.00;99108.78;1771609;81;21055;-73
2022/03/08 00:10:34;;;;;;;13.50;7.53;;;;;;;-2.80;100.00;99108.30;1771278;81;21051;-74
2022/03/08 00:13:01;;;;;;;15.80;8.03;;;;;;;-2.80;100.00;99104.33;1771314;81;21015;-74
2022/03/08 00:15:29;;;;;;;15.70;8.33;;;;;;;-2.79;100.00;99100.74;1771590;81;21548;-75
2022/03/08 00:17:57;;;;;;;15.50;8.23;;;;;;;-2.79;100.00;99101.23;1743826;81;21047;-74
2022/03/08 00:20:23;;;;;;;16.07;8.47;;;;;;;-2.79;100.00;99098.09;1771472;81;21493;-75
2022/03/08 00:22:50;;;;;;;18.50;8.63;;;;;;;-2.78;100.00;99097.61;1771582;81;21031;-75
2022/03/08 00:25:17;;;;;;;18.20;9.03;;;;;;;-2.77;100.00;99105.93;1771548;81;21021;-74
2022/03/08 00:27:47;;;;;;;19.03;9.57;;;;;;;-2.78;100.00;99097.16;1771320;81;21015;-74
2022/03/08 00:30:21;;;;;;;19.87;10.17;;;;;;;-2.78;100.00;99093.64;1771604;81;21012;-74
2022/03/08 00:32:50;;;;;;;19.97;9.70;;;;;;;-2.78;100.00;99094.51;1771605;81;21035;-73
2022/03/08 00:35:17;;;;;;;19.43;9.93;;;;;;;-2.76;100.00;99096.56;1771611;81;21018;-74
2022/03/08 00:37:44;;;;;;;21.97;10.77;;;;;;;-2.76;100.00;99095.24;1771462;81;21469;-74
2022/03/08 00:40:11;;;;;;;22.53;10.90;;;;;;;-2.74;100.00;99096.46;1771610;81;20998;-74
2022/03/08 00:42:39;;;;;;;20.87;10.17;;;;;;;-2.74;100.00;99094.65;1771559;81;20968;-73
2022/03/08 00:45:07;;;;;;;21.60;10.93;;;;;;;-2.73;100.00;99098.12;1771650;81;21094;-75
2022/03/08 00:50:11;;;;;;;24.85;10.90;;;;;;;-2.75;100.00;99093.44;1688633;85;21074;-74
2022/03/08 00:52:38;;;;;;;23.47;11.83;;;;;;;-2.77;100.00;99086.09;1636326;88;21564;-74
2022/03/08 00:55:07;;;;;;;22.73;12.47;;;;;;;-2.77;100.00;99084.77;1614474;88;21121;-74
2022/03/08 00:57:35;;;;;;;24.07;12.30;;;;;;;-2.77;100.00;99085.59;1635954;88;21074;-74
2022/03/08 01:00:06;;;;;;;24.43;11.73;;;;;;;-2.78;100.00;99085.25;1636698;88;21146;-74
2022/03/08 01:02:33;;;;;;;23.73;11.20;;;;;;;-2.76;100.00;99079.36;1636329;88;21134;-74
2022/03/08 01:05:00;;;;;;;24.17;12.80;;;;;;;-2.75;100.00;99081.52;1636273;88;21074;-74
2022/03/08 01:07:27;;;;;;;24.07;13.00;;;;;;;-2.75;100.00;99085.01;1636352;88;21512;-74
2022/03/08 01:09:54;;;;;;;23.37;12.43;;;;;;;-2.75;100.00;99087.66;1636329;88;21066;-74
2022/03/08 01:12:24;;;;;;;25.47;12.27;;;;;;;-2.76;100.00;99083.79;1636229;88;21620;-74
2022/03/08 01:14:51;;;;;;;24.53;12.53;;;;;;;-2.76;100.00;99080.69;1636290;88;21054;-75
2022/03/08 01:17:20;;;;;;;26.60;12.03;;;;;;;-2.75;100.00;99079.72;1636251;88;21548;-75
2022/03/08 01:19:48;;;;;;;23.43;12.13;;;;;;;-2.72;100.00;99081.31;1636348;88;21604;-74
2022/03/08 01:22:15;;;;;;;23.17;12.37;;;;;;;-2.74;100.00;99085.39;1636713;88;21046;-74
2022/03/08 01:24:42;;;;;;;25.63;12.83;;;;;;;-2.75;100.00;99090.78;1636648;88;21058;-75
2022/03/08 01:27:08;;;;;;;23.53;12.70;;;;;;;-2.76;100.00;99092.59;1636622;88;21552;-74
2022/03/08 01:29:36;;;;;;;25.07;13.30;;;;;;;-2.76;100.00;99094.37;1636463;88;21049;-74
2022/03/08 01:32:03;;;;;;;25.63;12.87;;;;;;;-2.80;100.00;99088.45;1636812;88;21082;-74
2022/03/08 01:34:30;;;;;;;23.17;12.00;;;;;;;-2.81;100.00;99088.59;1636761;88;21536;-75
2022/03/08 01:36:58;;;;;;;24.67;12.37;;;;;;;-2.81;100.00;99085.46;1636482;88;21141;-75
2022/03/08 01:39:24;;;;;;;24.00;11.93;;;;;;;-2.80;100.00;99083.16;1636549;88;21003;-72
2022/03/08 01:41:53;;;;;;;23.03;11.60;;;;;;;-2.80;100.00;99092.42;1636648;88;21488;-73
2022/03/08 01:44:20;;;;;;;24.53;12.30;;;;;;;-2.79;100.00;99088.00;1636535;88;21102;-74
2022/03/08 01:46:46;;;;;;;21.80;11.73;;;;;;;-2.76;100.00;99087.76;1644579;87;21078;-75
2022/03/08 01:49:14;;;;;;;22.83;11.20;;;;;;;-2.76;100.00;99085.98;1725679;81;21497;-74
2022/03/08 01:51:42;;;;;;;22.13;10.80;;;;;;;-2.75;100.00;99088.97;1778964;81;20979;-74
2022/03/08 01:54:10;;;;;;;23.27;12.10;;;;;;;-2.76;100.00;99093.92;1779220;81;21074;-76
2022/03/08 01:56:37;;;;;;;22.57;11.57;;;;;;;-2.76;100.00;99095.70;1779402;81;21039;-73
2022/03/08 01:59:04;;;;;;;21.30;11.40;;;;;;;-2.78;100.00;99094.51;1779591;81;21509;-75
2022/03/08 02:01:30;;;;;;;20.70;11.27;;;;;;;-2.78;100.00;99093.19;1780109;81;20987;-74
2022/03/08 02:03:57;;;;;;;20.60;11.23;;;;;;;-2.80;100.00;99089.78;1779929;81;21018;-75
2022/03/08 02:06:25;;;;;;;23.43;12.27;;;;;;;-2.80;100.00;99096.39;1779481;81;21019;-74
2022/03/08 02:08:54;;;;;;;21.73;11.13;;;;;;;-2.79;100.00;99092.80;1779684;81;21062;-74
2022/03/08 02:11:21;;;;;;;21.83;11.43;;;;;;;-2.80;100.00;99088.45;1779487;81;20991;-75
2022/03/08 02:13:50;;;;;;;20.20;9.90;;;;;;;-2.80;100.00;99080.52;1779010;81;21505;-74
2022/03/08 02:16:17;;;;;;;21.17;10.33;;;;;;;-2.80;100.00;99088.45;1778849;81;21086;-74
2022/03/08 02:18:44;;;;;;;19.47;10.10;;;;;;;-2.80;100.00;99085.81;1778807;81;20992;-75
2022/03/08 02:21:11;;;;;;;19.73;10.47;;;;;;;-2.81;100.00;99085.46;1779069;81;20983;-74
2022/03/08 02:23:38;;;;;;;21.83;10.77;;;;;;;-2.80;100.00;99087.62;1778885;81;21066;-74
2022/03/08 02:26:06;;;;;;;20.63;10.13;;;;;;;-2.79;100.00;99090.65;1778930;81;21042;-74
2022/03/08 02:28:33;;;;;;;21.47;10.57;;;;;;;-2.80;100.00;99086.30;1779173;81;21528;-74
2022/03/08 02:30:59;;;;;;;22.37;11.17;;;;;;;-2.81;100.00;99084.14;1779103;81;21493;-74
2022/03/08 02:33:26;;;;;;;21.30;10.50;;;;;;;-2.81;100.00;99095.20;1779151;81;20991;-74
2022/03/08 02:35:53;;;;;;;19.70;10.80;;;;;;;-2.83;100.00;99090.02;1779294;81;21026;-75
2022/03/08 02:38:19;;;;;;;21.67;10.80;;;;;;;-2.83;100.00;99094.45;1779021;81;21497;-75
2022/03/08 02:40:46;;;;;;;19.97;9.97;;;;;;;-2.83;100.00;99097.09;1771887;81;21504;-74
2022/03/08 02:43:13;;;;;;;20.37;10.50;;;;;;;-2.84;100.00;99096.25;1769974;81;21066;-74
2022/03/08 02:45:40;;;;;;;19.80;10.67;;;;;;;-2.86;100.00;99097.69;1770121;81;21046;-74
2022/03/08 02:48:07;;;;;;;20.47;10.53;;;;;;;-2.86;100.00;99100.33;1770001;81;21532;-73
2022/03/08 02:50:33;;;;;;;22.13;10.33;;;;;;;-2.84;100.00;99098.06;1769785;81;21477;-75
2022/03/08 02:53:01;;;;;;;21.63;10.30;;;;;;;-2.84;100.00;99102.87;1770171;81;21062;-74
2022/03/08 02:55:30;;;;;;;19.27;9.60;;;;;;;-2.84;100.00;99097.58;1770034;81;21081;-75
2022/03/08 02:57:57;;;;;;;19.67;10.00;;;;;;;-2.85;100.00;99099.88;1770108;81;21058;-73
2022/03/08 03:00:25;;;;;;;19.33;9.77;;;;;;;-2.83;100.00;99098.41;1770016;81;21007;-75
2022/03/08 03:02:51;;;;;;;19.43;9.87;;;;;;;-2.84;100.00;99106.84;1769823;81;21061;-75
2022/03/08 03:05:18;;;;;;;20.00;10.43;;;;;;;-2.85;100.00;99101.20;1769734;81;21002;-75
2022/03/08 03:07:45;;;;;;;19.00;10.30;;;;;;;-2.87;100.00;99099.98;1770085;81;21042;-75
2022/03/08 03:10:17;;;;;;;20.33;9.40;;;;;;;-2.89;100.00;99096.57;1769721;81;21561;-74
2022/03/08 03:12:45;;;;;;;18.70;9.10;;;;;;;-2.90;100.00;99096.70;1707082;84;20993;-74
2022/03/08 03:15:15;;;;;;;18.90;8.80;;;;;;;-2.92;100.00;99094.62;1706770;83;21527;-74
2022/03/08 03:17:42;;;;;;;19.90;8.50;;;;;;;-2.93;100.00;99091.63;1706955;84;21045;-73
2022/03/08 03:20:10;;;;;;;17.07;8.33;;;;;;;-2.93;100.00;99083.69;1707031;84;21439;-76
2022/03/08 03:22:37;;;;;;;18.60;9.13;;;;;;;-2.94;100.00;99086.81;1707113;84;21009;-75
2022/03/08 03:25:06;;;;;;;16.87;8.77;;;;;;;-2.92;100.00;99088.88;1706713;84;21145;-75
2022/03/08 03:27:34;;;;;;;15.67;7.83;;;;;;;-2.92;100.00;99084.03;1706988;84;21029;-75
2022/03/08 03:30:00;;;;;;;13.83;7.37;;;;;;;-2.91;100.00;99081.77;1706090;84;21068;-74
2022/03/08 03:32:27;;;;;;;12.93;7.33;;;;;;;-2.88;100.00;99078.92;1706794;84;21041;-75
2022/03/08 03:34:54;;;;;;;11.30;6.63;;;;;;;-2.88;100.00;99082.40;1706933;84;21064;-75
2022/03/08 03:37:21;;;;;;;14.23;7.00;;;;;;;-2.88;100.00;99077.59;1707071;84;21033;-74
2022/03/08 03:39:47;;;;;;;12.87;7.00;;;;;;;-2.89;100.00;99071.92;1709191;84;20991;-74
2022/03/08 03:42:14;;;;;;;12.80;7.17;;;;;;;-2.88;100.00;99074.46;1712884;84;21485;-74
2022/03/08 03:44:40;;;;;;;14.67;7.47;;;;;;;-2.88;100.00;99069.66;1713050;83;21047;-75
2022/03/08 03:47:08;;;;;;;12.77;7.00;;;;;;;-2.88;100.00;99074.46;1712639;84;21146;-76
2022/03/08 03:49:34;;;;;;;13.00;6.93;;;;;;;-2.88;100.00;99077.11;1712862;84;21027;-74
2022/03/08 03:52:02;;;;;;;14.97;7.23;;;;;;;-2.87;100.00;99070.01;1713706;84;21046;-75
2022/03/08 03:54:29;;;;;;;12.73;7.03;;;;;;;-2.86;100.00;99075.20;1714223;84;21042;-75
2022/03/08 03:56:56;;;;;;;11.67;6.70;;;;;;;-2.87;100.00;99071.33;1714168;84;21030;-74
2022/03/08 03:59:22;;;;;;;12.50;6.40;;;;;;;-2.85;100.00;99066.80;1714777;84;21075;-74
2022/03/08 04:01:49;;;;;;;14.60;7.17;;;;;;;-2.84;100.00;99064.51;1713995;84;21085;-75
2022/03/08 04:04:15;;;;;;;11.40;6.50;;;;;;;-2.83;100.00;99067.53;1713785;84;21003;-75
2022/03/08 04:06:43;;;;;;;14.17;7.33;;;;;;;-2.82;100.00;99060.43;1713060;83;21066;-74
2022/03/08 04:09:10;;;;;;;12.17;6.93;;;;;;;-2.82;100.00;99059.11;1738140;81;20995;-75
2022/03/08 04:11:37;;;;;;;17.60;7.60;;;;;;;-2.82;100.00;99056.46;1779518;81;21129;-74
2022/03/08 04:14:04;;;;;;;16.37;7.90;;;;;;;-2.82;100.00;99059.94;1778847;81;21066;-77
2022/03/08 04:16:31;;;;;;;15.20;7.87;;;;;;;-2.84;100.00;99056.56;1778827;81;20967;-76
2022/03/08 04:18:58;;;;;;;12.93;7.67;;;;;;;-2.86;100.00;99059.31;1779014;81;21019;-75
2022/03/08 04:21:25;;;;;;;13.83;7.67;;;;;;;-2.86;100.00;99051.38;1779119;81;21015;-75
2022/03/08 04:23:53;;;;;;;17.03;8.27;;;;;;;-2.85;100.00;99057.54;1778930;81;20983;-75
2022/03/08 04:26:20;;;;;;;15.83;7.93;;;;;;;-2.86;100.00;99051.38;1778759;81;21469;-74
2022/03/08 04:28:48;;;;;;;16.73;8.30;;;;;;;-2.86;100.00;99058.00;1778740;81;21015;-75
2022/03/08 04:31:15;;;;;;;16.40;8.43;;;;;;;-2.88;100.00;99057.27;1778890;81;20995;-75
2022/03/08 04:33:42;;;;;;;14.67;8.40;;;;;;;-2.88;100.00;99061.23;1779021;81;21030;-75
2022/03/08 04:36:09;;;;;;;15.53;9.03;;;;;;;-2.87;100.00;99053.67;1778901;81;21551;-76
2022/03/08 04:38:36;;;;;;;16.07;8.43;;;;;;;-2.85;100.00;99056.22;1778813;81;21042;-75
2022/03/08 04:41:05;;;;;;;17.00;9.43;;;;;;;-2.84;100.00;99056.56;1754158;80;21096;-75
2022/03/08 04:43:33;;;;;;;16.63;8.50;;;;;;;-2.82;100.00;99052.49;1785333;80;21018;-74
2022/03/08 04:46:00;;;;;;;15.60;8.33;;;;;;;-2.80;100.00;99051.90;1784946;80;21065;-75
2022/03/08 04:48:27;;;;;;;15.07;8.00;;;;;;;-2.80;100.00;99047.45;1785396;80;21073;-76
2022/03/08 04:50:53;;;;;;;17.23;8.93;;;;;;;-2.79;100.00;99021.36;1785786;80;21032;-75
2022/03/08 04:53:20;;;;;;;17.00;8.60;;;;;;;-2.77;100.00;99018.61;1785815;80;21004;-75
2022/03/08 04:55:48;;;;;;;16.50;9.73;;;;;;;-2.78;100.00;99016.91;1785710;80;21078;-75
2022/03/08 04:58:16;;;;;;;17.53;9.47;;;;;;;-2.76;100.00;99017.19;1785919;80;21039;-75
2022/03/08 05:00:42;;;;;;;18.80;9.53;;;;;;;-2.75;100.00;99016.20;1786017;80;21027;-74
2022/03/08 05:03:09;;;;;;;18.77;11.03;;;;;;;-2.75;100.00;99014.88;1786122;80;21051;-75
2022/03/08 05:05:38;;;;;;;18.17;10.00;;;;;;;-2.76;100.00;99007.05;1785996;80;21015;-75
2022/03/08 05:08:06;;;;;;;16.77;9.50;;;;;;;-2.75;100.00;99002.14;1785802;80;21035;-75
2022/03/08 05:10:33;;;;;;;16.67;9.30;;;;;;;-2.73;100.00;99003.70;1785926;80;21063;-75
2022/03/08 05:13:03;;;;;;;16.53;9.50;;;;;;;-2.71;100.00;99002.27;1749091;82;21020;-75
2022/03/08 05:15:31;;;;;;;19.03;10.00;;;;;;;-2.70;100.00;98998.20;1739040;82;21089;-75
2022/03/08 05:17:57;;;;;;;18.83;10.33;;;;;;;-2.69;100.00;98997.25;1704022;84;21021;-76
2022/03/08 05:20:24;;;;;;;17.50;10.03;;;;;;;-2.66;100.00;98992.20;1726622;82;21028;-75
2022/03/08 05:22:51;;;;;;;16.80;9.77;;;;;;;-2.65;100.00;98985.13;1724393;83;21024;-75
2022/03/08 05:25:17;;;;;;;19.77;10.13;;;;;;;-2.63;100.00;98986.69;1739223;82;21063;-75
2022/03/08 05:27:45;;;;;;;19.67;10.70;;;;;;;-2.62;100.00;98990.17;1703713;84;21001;-75
2022/03/08 05:30:13;;;;;;;19.40;10.37;;;;;;;-2.61;100.00;98985.25;1748663;82;21048;-75
2022/03/08 05:32:40;;;;;;;18.80;10.70;;;;;;;-2.59;100.00;98984.66;1748802;82;20980;-75
2022/03/08 05:35:08;;;;;;;19.47;10.70;;;;;;;-2.57;100.00;98978.77;1748995;82;21063;-75
2022/03/08 05:37:36;;;;;;;19.33;11.03;;;;;;;-2.59;100.00;98978.04;1748897;82;21019;-75
2022/03/08 05:40:07;;;;;;;22.20;11.73;;;;;;;-2.57;100.00;98976.95;1734302;82;21012;-75
2022/03/08 05:42:34;;;;;;;19.53;10.97;;;;;;;-2.55;100.00;98972.87;1684188;85;21093;-74
2022/03/08 05:45:01;;;;;;;21.87;13.33;;;;;;;-2.55;100.00;98966.26;1683994;85;21043;-75
2022/03/08 05:47:28;;;;;;;41.40;24.33;;;;;;;-2.52;100.00;98972.17;1684146;85;21114;-74
2022/03/08 05:49:54;;;;;;;32.67;16.97;;;;;;;-2.51;100.00;98967.73;1678545;85;21032;-74
2022/03/08 05:52:21;;;;;;;34.63;22.37;;;;;;;-2.49;100.00;98964.50;1678180;85;21142;-73
2022/03/08 05:54:48;;;;;;;23.23;14.13;;;;;;;-2.44;100.00;98962.80;1727166;83;21043;-75
2022/03/08 05:57:15;;;;;;;19.60;11.27;;;;;;;-2.42;100.00;98958.27;1727353;83;21051;-75
2022/03/08 05:59:44;;;;;;;27.73;19.10;;;;;;;-2.41;100.00;98955.97;1728822;83;21016;-74
2022/03/08 06:02:11;;;;;;;22.83;15.00;;;;;;;-2.39;100.00;98945.64;1727468;83;21160;-76
2022/03/08 06:04:39;;;;;;;20.67;13.10;;;;;;;-2.35;100.00;98947.09;1727334;83;21485;-75
2022/03/08 06:07:06;;;;;;;22.13;13.83;;;;;;;-2.32;100.00;98940.25;1728508;83;21035;-75
2022/03/08 06:09:33;;;;;;;21.63;12.73;;;;;;;-2.28;100.00;98939.53;1728188;83;21168;-75
2022/03/08 06:12:00;;;;;;;24.10;13.50;;;;;;;-2.24;100.00;98935.68;1727459;83;21044;-76
2022/03/08 06:14:28;;;;;;;21.97;13.50;;;;;;;-2.22;100.00;98935.08;1703856;83;21022;-76
2022/03/08 06:16:57;;;;;;;22.87;14.97;;;;;;;-2.19;100.00;98936.66;1727221;83;21056;-76
2022/03/08 06:19:24;;;;;;;22.87;13.23;;;;;;;-2.14;100.00;98937.16;1727455;83;21506;-76
2022/03/08 06:21:53;;;;;;;22.90;12.70;;;;;;;-2.08;100.00;98932.70;1727457;83;21506;-76
2022/03/08 06:24:20;;;;;;;21.47;12.23;;;;;;;-2.05;100.00;98931.15;1727685;83;20988;-76
2022/03/08 06:26:47;;;;;;;20.73;12.37;;;;;;;-2.06;100.00;98931.27;1727663;83;21011;-74
2022/03/08 06:29:13;;;;;;;22.60;12.70;;;;;;;-2.06;100.00;98930.77;1727693;83;21004;-76
2022/03/08 06:31:40;;;;;;;21.77;11.53;;;;;;;-2.04;100.00;98931.49;1727661;83;20988;-75
2022/03/08 06:34:06;;;;;;;18.03;10.53;;;;;;;-2.02;100.00;98933.57;1727845;83;21098;-76
2022/03/08 06:36:34;;;;;;;19.63;11.07;;;;;;;-1.97;100.00;98929.22;1728117;83;21051;-78
2022/03/08 06:39:02;;;;;;;20.40;11.13;;;;;;;-1.93;100.00;98931.98;1727937;82;21069;-78
2022/03/08 06:41:28;;;;;;;19.83;11.50;;;;;;;-1.91;100.00;98935.39;1743188;82;21048;-68
2022/03/08 06:43:55;;;;;;;17.53;10.53;;;;;;;-1.87;100.00;98937.31;1742741;82;20966;-70
2022/03/08 06:46:22;;;;;;;19.67;10.80;;;;;;;-1.85;100.00;98939.36;1761160;80;21047;-70
2022/03/08 06:48:48;;;;;;;19.07;10.30;;;;;;;-1.82;100.00;98937.80;1770661;80;20955;-69
2022/03/08 06:51:15;;;;;;;20.20;11.87;;;;;;;-1.81;100.00;98942.96;1771557;80;20988;-75
2022/03/08 06:53:43;;;;;;;19.70;11.30;;;;;;;-1.77;100.00;98944.43;1767727;80;20998;-69
2022/03/08 06:56:10;;;;;;;19.17;10.87;;;;;;;-1.72;100.00;98940.08;1757442;80;21008;-70
2022/03/08 06:58:37;;;;;;;22.77;12.80;;;;;;;-1.69;100.00;98941.17;1771505;80;21030;-68
2022/03/08 07:01:03;;;;;;;20.53;11.27;;;;;;;-1.66;100.00;98942.27;1771339;80;21583;-70
2022/03/08 07:03:31;;;;;;;20.07;10.80;;;;;;;-1.58;100.00;98944.30;1775695;80;20948;-68
2022/03/08 07:05:57;;;;;;;21.40;12.17;;;;;;;-1.55;100.00;98949.37;1777832;80;21545;-69
2022/03/08 07:08:24;;;;;;;26.93;13.90;;;;;;;-1.50;100.00;98944.55;1773599;80;20955;-67
2022/03/08 07:10:51;;;;;;;25.70;14.60;;;;;;;-1.44;100.00;98947.20;1770756;80;21038;-68
2022/03/08 07:13:18;;;;;;;23.87;13.17;;;;;;;-1.41;100.00;98945.14;1762626;80;21027;-67
2022/03/08 07:15:45;;;;;;;26.17;14.33;;;;;;;-1.39;100.00;98946.34;1754127;82;21087;-67
2022/03/08 07:18:12;;;;;;;26.07;15.67;;;;;;;-1.39;100.00;98950.33;1753976;82;21019;-68
2022/03/08 07:20:39;;;;;;;26.53;14.87;;;;;;;-1.36;100.00;98950.09;1754102;82;21063;-68
2022/03/08 07:23:06;;;;;;;30.80;17.37;;;;;;;-1.30;100.00;98954.06;1753909;82;21051;-67
2022/03/08 07:25:34;;;;;;;70.93;39.77;;;;;;;-1.25;100.00;98954.53;1754086;82;21123;-67
2022/03/08 07:28:01;;;;;;;70.67;41.57;;;;;;;-1.22;100.00;98963.55;1759416;80;20964;-68
2022/03/08 07:30:29;;;;;;;42.27;33.27;;;;;;;-1.21;100.00;98970.06;1774103;80;21515;-66
2022/03/08 07:32:56;;;;;;;29.17;18.20;;;;;;;-1.15;100.00;98963.45;1783229;80;20980;-67
2022/03/08 07:35:24;;;;;;;25.67;14.97;;;;;;;-1.13;100.00;98969.47;1785482;80;21034;-67
2022/03/08 07:37:51;;;;;;;23.87;14.30;;;;;;;-1.15;100.00;98977.55;1774834;80;21010;-67
2022/03/08 07:40:18;;;;;;;26.67;14.87;;;;;;;-1.15;100.00;98980.20;1774597;80;20995;-67
2022/03/08 07:42:46;;;;;;;25.30;14.97;;;;;;;-1.16;100.00;98994.91;1773947;80;21014;-67
2022/03/08 07:45:14;;;;;;;34.27;17.93;;;;;;;-1.15;100.00;98997.45;1774161;81;20994;-69
2022/03/08 07:47:41;;;;;;;37.13;26.87;;;;;;;-1.05;100.00;98994.05;1775022;80;21081;-68
2022/03/08 07:50:11;;;;;;;31.07;19.87;;;;;;;-0.99;100.00;98998.89;1774842;80;20979;-66
2022/03/08 07:52:38;;;;;;;35.10;18.87;;;;;;;-0.91;100.00;99003.08;1757762;80;20955;-68
2022/03/08 07:55:08;;;;;;;31.90;18.57;;;;;;;-0.81;100.00;99009.83;1762798;80;20958;-68
2022/03/08 07:57:35;;;;;;;33.00;18.60;;;;;;;-0.73;100.00;99014.51;1770169;80;21485;-69
2022/03/08 08:00:05;;;;;;;32.13;17.63;;;;;;;-0.66;100.00;99017.02;1763642;80;20963;-67
2022/03/08 08:02:32;;;;;;;29.60;16.57;;;;;;;-0.60;100.00;99034.63;1776185;80;20996;-69
2022/03/08 08:04:59;;;;;;;28.17;16.43;;;;;;;-0.56;100.00;99041.86;1772672;81;20987;-67
2022/03/08 08:07:26;;;;;;;26.03;15.23;;;;;;;-0.59;100.00;99049.58;1772407;81;21016;-67
2022/03/08 08:09:53;;;;;;;31.37;17.73;;;;;;;-0.58;100.00;99065.05;1772497;81;21113;-68
2022/03/08 08:12:20;;;;;;;34.23;21.00;;;;;;;-0.57;100.00;99066.72;1768098;80;21003;-68
2022/03/08 08:14:47;;;;;;;54.43;35.33;;;;;;;-0.47;100.00;99077.45;1782832;80;21493;-68
2022/03/08 08:17:14;;;;;;;39.63;24.50;;;;;;;-0.40;100.00;99079.48;1782489;80;20991;-66
2022/03/08 08:19:41;;;;;;;35.80;23.47;;;;;;;-0.29;100.00;99085.73;1782483;80;21022;-68
2022/03/08 08:22:08;;;;;;;47.17;30.20;;;;;;;-0.13;100.00;99082.66;1782527;80;21022;-67
2022/03/08 08:24:35;;;;;;;30.90;18.60;;;;;;;-0.03;100.00;99091.57;1772851;80;21500;-67
2022/03/08 08:27:02;;;;;;;26.93;15.43;;;;;;;0.08;100.00;99102.64;1772574;81;20972;-66
2022/03/08 08:29:29;;;;;;;26.00;15.03;;;;;;;0.17;100.00;99109.84;1772288;81;21047;-68
2022/03/08 08:31:56;;;;;;;21.87;12.40;;;;;;;0.21;100.00;99113.92;1768152;81;21031;-67
2022/03/08 08:34:23;;;;;;;22.97;11.57;;;;;;;0.20;100.00;99123.39;1776389;80;20991;-66
2022/03/08 08:36:50;;;;;;;20.67;10.10;;;;;;;0.21;100.00;99130.38;1768273;80;21503;-67
2022/03/08 08:39:16;;;;;;;17.40;9.50;;;;;;;0.09;100.00;99145.52;1739965;80;21001;-67
2022/03/08 08:41:44;;;;;;;20.90;15.10;;;;;;;0.12;100.00;99151.42;1764339;80;20975;-67
2022/03/08 08:44:11;;;;;;;19.20;12.53;;;;;;;0.12;100.00;99158.56;1774014;80;21002;-67
2022/03/08 08:46:40;;;;;;;24.63;15.60;;;;;;;0.07;100.00;99171.38;1771422;80;21019;-68
2022/03/08 08:49:07;;;;;;;17.07;10.07;;;;;;;0.07;100.00;99171.38;1775993;80;21068;-67
2022/03/08 08:51:34;;;;;;;15.73;8.60;;;;;;;0.15;100.00;99180.42;1776487;80;21030;-69
2022/03/08 08:54:02;;;;;;;12.83;7.33;;;;;;;0.20;100.00;99187.20;1759157;80;21049;-68
2022/03/08 08:56:35;;;;;;;22.17;15.40;;;;;;;0.20;100.00;99200.49;1769774;80;21023;-78
2022/03/08 08:59:03;;;;;;;17.27;9.00;;;;;;;0.16;100.00;99210.50;1689098;85;21093;-73
2022/03/08 09:01:31;;;;;;;16.57;9.50;;;;;;;0.26;100.00;99212.77;1692461;85;21054;-79
2022/03/08 09:03:57;;;;;;;17.83;10.33;;;;;;;0.38;100.00;99206.45;1693919;85;21022;-79
2022/03/08 09:06:26;;;;;;;16.03;8.80;;;;;;;0.54;100.00;99213.17;1693722;85;21062;-76
2022/03/08 09:08:54;;;;;;;19.10;9.10;;;;;;;0.62;100.00;99219.17;1693754;85;21058;-75
2022/03/08 09:11:23;;;;;;;20.07;9.50;;;;;;;0.61;100.00;99228.14;1694983;84;21047;-77
2022/03/08 09:13:50;;;;;;;19.80;10.90;;;;;;;0.62;100.00;99234.67;1695555;85;21062;-77
2022/03/08 09:16:17;;;;;;;17.00;9.20;;;;;;;0.63;100.00;99246.98;1695846;84;21065;-76
2022/03/08 09:18:45;;;;;;;13.03;7.90;;;;;;;0.67;100.00;99250.23;1694630;85;21117;-76
2022/03/08 09:21:12;;;;;;;14.37;8.33;;;;;;;0.56;100.00;99255.11;1694039;85;21020;-76
2022/03/08 09:23:40;;;;;;;16.73;9.33;;;;;;;0.53;100.00;99263.34;1692639;85;21514;-75
2022/03/08 09:26:07;;;;;;;17.37;9.20;;;;;;;0.55;100.00;99262.75;1691538;85;21449;-75
2022/03/08 09:28:34;;;;;;;15.13;9.00;;;;;;;0.61;100.00;99271.55;1691312;85;21054;-74
2022/03/08 09:31:00;;;;;;;16.70;9.07;;;;;;;0.57;100.00;99275.44;1691103;85;21105;-74
2022/03/08 09:33:27;;;;;;;20.33;11.97;;;;;;;0.52;100.00;99279.80;1691439;85;21054;-76
2022/03/08 09:35:54;;;;;;;21.57;13.90;;;;;;;0.53;100.00;99288.61;1690931;85;21074;-77
2022/03/08 09:38:22;;;;;;;20.77;11.90;;;;;;;0.52;100.00;99285.12;1690321;85;21101;-76
2022/03/08 09:40:48;;;;;;;19.57;10.60;;;;;;;0.53;100.00;99279.30;1682525;85;21114;-76
2022/03/08 09:43:15;;;;;;;16.17;9.33;;;;;;;0.59;100.00;99282.81;1657479;85;21055;-76
2022/03/08 09:45:42;;;;;;;16.07;8.43;;;;;;;0.63;100.00;99273.59;1680101;85;21120;-75
2022/03/08 09:48:09;;;;;;;16.37;10.00;;;;;;;0.65;100.00;99284.11;1680127;84;21079;-75
2022/03/08 09:50:36;;;;;;;16.13;8.83;;;;;;;0.61;100.00;99287.52;1681812;85;21018;-74
2022/03/08 09:53:03;;;;;;;15.40;8.10;;;;;;;0.51;100.00;99283.45;1682596;85;21061;-75
2022/03/08 09:55:30;;;;;;;15.37;8.57;;;;;;;0.43;100.00;99288.53;1682266;85;21053;-75
2022/03/08 09:57:57;;;;;;;19.77;11.93;;;;;;;0.38;100.00;99294.71;1682162;85;21068;-75
2022/03/08 10:00:25;;;;;;;17.87;10.03;;;;;;;0.34;100.00;99302.09;1682653;85;21519;-74
2022/03/08 10:02:55;;;;;;;25.90;14.43;;;;;;;0.41;100.00;99294.93;1733598;82;21045;-74
2022/03/08 10:05:24;;;;;;;19.67;9.70;;;;;;;0.45;100.00;99289.74;1752160;82;20966;-75
2022/03/08 10:08:10;;;;;;;23.60;10.67;;;;;;;0.42;100.00;99297.47;1752029;82;21014;-75
2022/03/08 10:11:03;;;;;;;17.37;8.83;;;;;;;0.42;100.00;99304.12;1752373;82;21005;-74
2022/03/08 10:13:36;;;;;;;20.47;10.73;;;;;;;0.42;100.00;99300.63;1751522;81;21034;-74
2022/03/08 10:18:52;;;;;;;15.93;8.20;;;;;;;0.46;100.00;99307.37;1689215;85;21548;-70
2022/03/08 10:21:44;;;;;;;19.17;10.70;;;;;;;0.41;100.00;99300.25;1627826;87;21100;-71
2022/03/08 10:24:17;;;;;;;17.77;9.33;;;;;;;0.43;100.00;99303.66;1628067;87;21554;-72
2022/03/08 10:26:52;;;;;;;;;;;;;;;0.60;100.00;99299.11;1653911;87;21085;-70
2022/03/08 10:29:36;;;;;;;14.17;7.80;;;;;;;0.73;100.00;99302.47;1651327;87;20111;-70
2022/03/08 10:32:10;;;;;;;18.10;8.57;;;;;;;0.79;100.00;99309.09;1548787;91;21055;-70
2022/03/08 10:34:39;;;;;;;16.07;7.90;;;;;;;0.84;100.00;99310.89;1568581;90;21106;-70
2022/03/08 10:37:13;;;;;;;19.27;10.37;;;;;;;0.91;100.00;99305.42;1568723;91;21156;-70
2022/03/08 10:39:51;;;;;;;16.53;8.17;;;;;;;1.08;100.00;99307.16;1576062;90;21095;-68
2022/03/08 10:42:25;;;;;;;22.90;12.30;;;;;;;1.10;100.00;99318.05;1565956;91;21051;-70
2022/03/08 10:44:56;;;;;;;20.83;10.60;;;;;;;1.08;100.00;99316.47;1568151;91;21036;-72
2022/03/08 10:47:24;;;;;;;27.70;13.73;;;;;;;1.11;100.00;99318.89;1540314;93;21093;-69
2022/03/08 10:49:55;;;;;;;27.63;14.43;;;;;;;1.19;100.00;99327.09;1504592;94;21636;-70
2022/03/08 10:52:35;;;;;;;38.37;20.73;;;;;;;1.21;100.00;99333.13;1504527;94;21112;-70
2022/03/08 10:55:16;;;;;;;16.67;8.30;;;;;;;1.20;100.00;99337.25;1504518;94;21581;-70
2022/03/08 10:57:49;;;;;;;22.27;11.03;;;;;;;1.08;100.00;99345.77;1504783;94;21577;-69
2022/03/08 11:00:20;;;;;;;20.80;9.60;;;;;;;0.93;100.00;99342.07;1503745;94;21149;-70
2022/03/08 11:03:03;;;;;;;13.97;8.00;;;;;;;0.84;100.00;99352.65;1523553;94;21581;-69
2022/03/08 11:05:36;;;;;;;19.17;10.10;;;;;;;0.74;100.00;99352.08;1523576;94;21134;-70
2022/03/08 11:08:05;;;;;;;27.52;18.00;;;;;;;0.66;100.00;99349.18;1514274;95;21116;-71
2022/03/08 11:10:32;;;;;;;23.17;13.43;;;;;;;0.55;100.00;99361.19;1514455;95;21578;-70
2022/03/08 11:13:00;;;;;;;24.13;12.47;;;;;;;0.47;100.00;99353.80;1514325;95;21077;-70
2022/03/08 11:15:29;;;;;;;23.07;11.90;;;;;;;0.42;100.00;99345.34;1514065;95;21101;-71
2022/03/08 11:17:57;;;;;;;20.27;10.57;;;;;;;0.43;100.00;99348.38;1531918;92;21698;-70
2022/03/08 11:20:26;;;;;;;18.27;9.00;;;;;;;0.45;100.00;99338.95;1582395;89;21111;-71
2022/03/08 11:22:55;;;;;;;25.20;10.93;;;;;;;0.48;100.00;99337.35;1588123;90;21105;-71